Time;durP1;ratioP1;P1;durP2;ratioP2;P2;SDS_P1;SDS_P2;PMS_P1;PMS_P2;Temp;Humidity;BMP_temperature;BMP_pressure;BME280_temperature;BME280_humidity;BME280_pressure;Samples;Min_cycle;Max_cycle;Signal;HPM_P1;HPM_P2
2021/10/25 00:01:09;;;;;;;10.20;5.15;;;7.10;99.90;;;5.36;95.47;101656.97;2569227;30;138515;-38
2021/10/25 00:03:37;;;;;;;10.50;4.53;;;7.10;99.90;;;5.26;95.58;101652.47;2569964;30;137734;-38
2021/10/25 00:06:04;;;;;;;10.23;5.20;;;7.00;99.90;;;5.25;95.97;101655.34;2570003;30;139164;-39
2021/10/25 00:08:32;;;;;;;8.68;4.85;;;7.00;99.90;;;5.26;96.11;101649.75;2569470;30;137476;-38
2021/10/25 00:11:00;;;;;;;9.27;4.60;;;7.00;99.90;;;5.24;95.84;101654.47;2569767;30;139062;-38
2021/10/25 00:13:27;;;;;;;7.65;4.68;;;7.00;99.90;;;5.23;95.81;101650.06;2568287;30;137199;-38
2021/10/25 00:15:55;;;;;;;8.20;4.85;;;6.90;99.90;;;5.15;96.04;101650.84;2568284;30;138251;-38
2021/10/25 00:18:23;;;;;;;10.30;5.68;;;6.90;99.90;;;5.13;96.67;101652.88;2571278;30;137116;-38
2021/10/25 00:20:50;;;;;;;9.68;4.72;;;6.80;99.90;;;5.09;96.64;101645.25;2571613;30;138080;-38
2021/10/25 00:23:18;;;;;;;10.13;5.35;;;6.80;99.90;;;5.03;97.01;101642.13;2568407;30;138515;-38
2021/10/25 00:25:48;;;;;;;8.68;5.28;;;6.80;99.90;;;5.03;97.09;101642.13;2569806;30;137959;-38
2021/10/25 00:28:16;;;;;;;9.48;4.95;;;6.80;99.90;;;5.01;97.25;101636.03;2569189;30;138423;-38
2021/10/25 00:30:44;;;;;;;7.95;4.82;;;6.70;99.90;;;4.99;97.27;101640.75;2569991;30;136826;-38
2021/10/25 00:33:12;;;;;;;9.73;5.00;;;6.70;99.90;;;4.87;97.48;101628.47;2568734;30;137444;-38
2021/10/25 00:35:40;;;;;;;;;;;6.70;99.90;;;4.90;97.92;101639.81;2570506;30;138372;-38
2021/10/25 00:38:07;;;;;;;7.65;4.38;;;6.60;99.90;;;4.84;97.57;101631.50;2569728;30;138780;-38
2021/10/25 00:40:35;;;;;;;7.63;5.00;;;6.60;99.90;;;4.80;97.82;101622.00;2568256;30;140558;-38
2021/10/25 00:43:04;;;;;;;8.18;4.72;;;6.60;99.90;;;4.80;98.56;101639.06;2568734;30;137431;-38
2021/10/25 00:45:32;;;;;;;10.35;4.82;;;6.60;99.90;;;4.75;98.45;101626.00;2568467;30;139420;-38
2021/10/25 00:48:00;;;;;;;10.93;5.25;;;6.50;99.90;;;4.78;98.52;101630.25;2568815;30;137874;-38
2021/10/25 00:50:28;;;;;;;10.82;5.38;;;6.50;99.90;;;4.80;98.81;101635.53;2570835;30;138383;-38
2021/10/25 00:52:59;;;;;;;10.10;4.72;;;6.50;99.90;;;4.84;98.78;101626.94;2568845;30;136847;-38
2021/10/25 00:55:26;;;;;;;;;;;6.60;99.90;;;4.84;98.87;101635.03;2569179;30;138361;-38
2021/10/25 00:57:55;;;;;;;10.57;4.57;;;6.50;99.90;;;4.82;98.82;101628.09;2570387;30;137080;-38
2021/10/25 01:00:24;;;;;;;10.20;5.25;;;6.50;99.90;;;4.78;99.26;101622.16;2568139;30;138296;-38
2021/10/25 01:02:51;;;;;;;7.75;5.07;;;6.50;99.90;;;4.73;99.17;101614.47;2569434;30;136689;-38
2021/10/25 01:05:19;;;;;;;9.23;5.10;;;6.50;99.90;;;4.72;99.05;101622.78;2570011;30;138836;-38
2021/10/25 01:07:50;;;;;;;9.00;5.13;;;6.50;99.90;;;4.71;99.46;101627.31;2569221;30;138968;-38
2021/10/25 01:10:20;;;;;;;8.20;4.80;;;6.40;99.90;;;4.69;99.61;101623.91;2569807;30;138400;-38
2021/10/25 01:12:53;;;;;;;9.13;4.78;;;6.40;99.90;;;4.66;99.87;101618.81;2569342;30;137915;-38
2021/10/25 01:15:21;;;;;;;9.02;4.97;;;6.40;99.90;;;4.66;99.69;101624.22;2568283;30;138518;-38
2021/10/25 01:17:59;;;;;;;8.45;5.03;;;6.40;99.90;;;4.63;99.78;101619.13;2569901;30;137574;-38
2021/10/25 01:20:30;;;;;;;8.48;5.00;;;6.40;99.90;;;4.59;99.90;101615.03;2566807;30;140195;-38
2021/10/25 01:23:00;;;;;;;9.52;5.28;;;6.30;99.90;;;4.57;100.00;101628.69;2570627;30;139002;-38
2021/10/25 01:25:29;;;;;;;11.43;5.03;;;6.30;99.90;;;4.59;100.00;101629.38;2569326;30;141802;-38
2021/10/25 01:27:58;;;;;;;9.98;5.30;;;6.30;99.90;;;4.60;100.00;101620.28;2568296;30;138827;-38
2021/10/25 01:30:27;;;;;;;9.25;4.93;;;6.30;99.90;;;4.54;100.00;101628.16;2569718;30;138306;-38
2021/10/25 01:32:55;;;;;;;9.30;5.07;;;6.30;99.90;;;4.54;100.00;101626.31;2568499;30;139713;-38
2021/10/25 01:35:24;;;;;;;10.73;5.38;;;6.30;99.90;;;4.52;100.00;101633.72;2568361;30;139648;-38
2021/10/25 01:37:52;;;;;;;7.97;5.03;;;6.30;99.90;;;4.39;100.00;101615.16;2567124;30;138717;-38
2021/10/25 01:40:19;;;;;;;;;;;6.20;99.90;;;4.48;100.00;101632.31;2568745;30;138132;-38
2021/10/25 01:42:47;;;;;;;10.80;5.22;;;6.20;99.90;;;4.49;100.00;101627.75;2569548;30;136885;-38
2021/10/25 01:45:16;;;;;;;10.25;5.72;;;6.20;99.90;;;4.50;100.00;101621.34;2568059;30;140778;-38
2021/10/25 01:47:43;;;;;;;10.35;5.43;;;6.20;99.90;;;4.49;100.00;101620.50;2567762;30;140422;-38
2021/10/25 01:50:11;;;;;;;8.35;5.05;;;6.20;99.90;;;4.45;100.00;101624.53;2568989;30;138991;-40
2021/10/25 01:52:39;;;;;;;8.65;5.40;;;6.20;99.90;;;4.45;100.00;101616.41;2568263;30;139317;-38
2021/10/25 01:55:09;;;;;;;9.10;5.10;;;6.20;99.90;;;4.41;100.00;101609.63;2568067;30;140527;-38
2021/10/25 01:57:38;;;;;;;7.55;4.80;;;6.20;99.90;;;4.44;100.00;101612.03;2570465;30;138643;-38
2021/10/25 02:00:07;;;;;;;;;;;6.20;99.90;;;4.43;100.00;101611.16;2567955;30;139451;-38
2021/10/25 02:02:41;;;;;;;8.90;5.38;;;6.20;99.90;;;4.39;100.00;101598.13;2569270;30;136811;-38
2021/10/25 02:05:28;;;;;;;7.78;4.65;;;6.10;99.90;;;4.43;100.00;101605.75;2570031;30;137213;-38
2021/10/25 02:07:57;;;;;;;9.90;5.32;;;6.20;99.90;;;4.39;100.00;101601.66;2568023;30;139644;-38
2021/10/25 02:10:26;;;;;;;9.00;5.15;;;6.10;99.90;;;4.38;100.00;101596.41;2568699;30;140634;-38
2021/10/25 02:12:54;;;;;;;8.52;5.15;;;6.10;99.90;;;4.37;100.00;101597.41;2568482;30;138517;-38
2021/10/25 02:15:22;;;;;;;10.48;5.20;;;6.10;99.90;;;4.37;100.00;101595.56;2567046;30;138833;-38
2021/10/25 02:17:53;;;;;;;7.97;4.68;;;6.10;99.90;;;4.31;100.00;101591.59;2568603;30;136920;-38
2021/10/25 02:20:21;;;;;;;8.30;4.57;;;6.10;99.90;;;4.29;100.00;101590.06;2568706;30;140571;-38
2021/10/25 02:22:49;;;;;;;8.63;5.25;;;6.10;99.90;;;4.30;100.00;101587.19;2568351;30;138979;-38
2021/10/25 02:25:19;;;;;;;12.45;5.03;;;6.00;99.90;;;4.30;100.00;101586.38;2568295;30;138968;-38
2021/10/25 02:27:59;;;;;;;8.23;5.20;;;6.00;99.90;;;4.29;100.00;101582.81;2569147;30;137100;-38
2021/10/25 02:30:27;;;;;;;7.63;4.72;;;6.00;99.90;;;4.40;100.00;101584.44;2569630;30;139799;-38
2021/10/25 02:32:58;;;;;;;8.82;4.57;;;6.10;99.90;;;4.43;100.00;101577.88;2567982;30;138235;-38
2021/10/25 02:35:27;;;;;;;11.13;4.97;;;6.10;99.90;;;4.40;100.00;101575.50;2569882;30;137118;-38
2021/10/25 02:37:57;;;;;;;9.15;5.30;;;6.10;99.90;;;4.42;100.00;101566.22;2571082;30;138660;-38
2021/10/25 02:40:29;;;;;;;7.65;4.85;;;6.10;99.90;;;4.41;100.00;101577.19;2568796;30;139182;-38
2021/10/25 02:43:00;;;;;;;8.95;5.15;;;6.10;99.90;;;4.40;100.00;101567.41;2566975;30;137714;-38
2021/10/25 02:45:28;;;;;;;8.13;4.57;;;6.10;99.90;;;4.37;100.00;101557.72;2571867;30;137457;-38
2021/10/25 02:47:56;;;;;;;8.82;4.50;;;6.10;99.90;;;4.42;100.00;101562.69;2570101;30;138909;-38
2021/10/25 02:50:25;;;;;;;7.47;4.70;;;6.10;99.90;;;4.37;100.00;101559.56;2568947;30;139845;-38
2021/10/25 02:52:53;;;;;;;8.70;4.70;;;6.10;99.90;;;4.35;100.00;101561.56;2570175;30;138630;-38
2021/10/25 02:55:23;;;;;;;8.95;4.93;;;6.10;99.90;;;4.31;100.00;101556.47;2569520;30;140764;-38
2021/10/25 02:57:53;;;;;;;8.43;5.25;;;6.10;99.90;;;4.32;100.00;101568.97;2568409;30;139763;-38
2021/10/25 03:00:21;;;;;;;8.05;4.82;;;6.10;99.90;;;4.32;100.00;101557.34;2568386;30;140064;-38
2021/10/25 03:02:48;;;;;;;7.22;4.90;;;6.10;99.90;;;4.33;100.00;101556.34;2569720;30;138557;-38
2021/10/25 03:05:16;;;;;;;8.65;4.63;;;6.00;99.90;;;4.32;100.00;101563.59;2568239;30;138323;-38
2021/10/25 03:07:45;;;;;;;8.70;4.40;;;6.00;99.90;;;4.32;100.00;101562.75;2567738;30;138850;-38
2021/10/25 03:10:13;;;;;;;7.93;4.47;;;6.00;99.90;;;4.33;100.00;101561.75;2567179;30;138927;-38
2021/10/25 03:12:46;;;;;;;8.75;5.05;;;6.10;99.90;;;4.27;100.00;101557.78;2568122;30;139472;-38
2021/10/25 03:15:16;;;;;;;8.27;5.00;;;6.00;99.90;;;4.23;100.00;101561.81;2573513;30;138080;-38
2021/10/25 03:17:45;;;;;;;9.48;5.15;;;6.00;99.90;;;4.23;100.00;101553.72;2569587;30;140774;-38
2021/10/25 03:20:16;;;;;;;8.82;4.90;;;6.00;99.90;;;4.20;100.00;101547.75;2568596;30;139917;-38
2021/10/25 03:22:45;;;;;;;7.53;4.45;;;5.90;99.90;;;4.13;100.00;101553.75;2569495;30;138976;-38
2021/10/25 03:25:16;;;;;;;9.95;5.20;;;5.90;99.90;;;4.11;100.00;101561.16;2566565;30;138943;-37
2021/10/25 03:27:44;;;;;;;9.82;5.25;;;5.90;99.90;;;4.10;100.00;101551.38;2569732;30;137388;-38
2021/10/25 03:30:12;;;;;;;7.10;4.68;;;5.90;99.90;;;4.09;100.00;101557.78;2569044;30;138476;-38
2021/10/25 03:32:44;;;;;;;8.35;4.50;;;5.80;99.90;;;4.06;100.00;101555.38;2569966;30;138899;-38
2021/10/25 03:35:38;;;;;;;6.93;4.57;;;5.80;99.90;;;4.01;100.00;101547.72;2569601;30;137089;-38
2021/10/25 03:38:11;;;;;;;8.90;5.32;;;5.80;99.90;;;4.04;100.00;101554.69;2569205;30;139106;-38
2021/10/25 03:40:44;;;;;;;9.38;5.15;;;5.70;99.90;;;4.06;100.00;101547.28;2569539;30;138997;-38
2021/10/25 03:43:12;;;;;;;8.80;5.18;;;5.80;99.90;;;4.08;100.00;101539.00;2567143;30;139759;-38
2021/10/25 03:45:50;;;;;;;9.43;5.20;;;5.80;99.90;;;4.07;100.00;101546.28;2568294;30;139830;-38
2021/10/25 03:48:43;;;;;;;10.90;5.50;;;5.80;99.90;;;4.07;100.00;101546.28;2568215;30;137321;-38
2021/10/25 03:51:15;;;;;;;8.48;4.85;;;5.80;99.90;;;4.03;100.00;101528.69;2570882;30;139894;-38
2021/10/25 03:56:19;;;;;;;9.60;5.25;;;5.80;99.90;;;4.05;100.00;101528.50;2567410;30;139705;-38
2021/10/25 04:12:43;;;;;;;9.80;5.35;;;5.80;99.90;;;4.21;100.00;101535.94;2568480;30;138856;-38
2021/10/25 04:13:24;;;;;;;9.07;5.18;;;5.90;99.90;;;4.09;100.00;101519.09;2569961;30;139719;-38
2021/10/25 04:30:21;;;;;;;9.90;5.20;;;5.90;99.90;;;4.11;100.00;101519.78;2569790;30;139622;-38
2021/10/25 04:32:48;;;;;;;;;;;5.80;99.90;;;4.01;100.00;101509.91;2570113;30;139222;-38
2021/10/25 04:35:38;;;;;;;11.68;5.35;;;5.80;99.90;;;4.10;100.00;101524.38;2569752;30;140531;-38
2021/10/25 04:38:19;;;;;;;9.90;4.85;;;5.80;99.90;;;4.04;100.00;101516.88;2569189;30;139904;-38
2021/10/25 04:40:47;;;;;;;9.40;5.22;;;5.80;99.90;;;4.06;100.00;101522.09;2568586;30;139943;-38
2021/10/25 04:43:16;;;;;;;9.10;4.88;;;5.80;99.90;;;4.07;100.00;101519.28;2572975;30;138105;-38
2021/10/25 04:45:46;;;;;;;10.07;4.78;;;5.80;99.90;;;4.09;100.00;101513.69;2566311;30;138512;-38
2021/10/25 04:48:15;;;;;;;10.38;5.15;;;5.80;99.90;;;4.10;100.00;101510.84;2566125;30;140475;-38
2021/10/25 04:51:07;;;;;;;7.45;4.82;;;5.80;99.90;;;4.12;100.00;101513.41;2569003;30;138070;-38
2021/10/25 04:54:09;;;;;;;8.57;4.93;;;5.80;99.90;;;4.12;100.00;101511.56;2568299;30;136967;-38
2021/10/25 04:56:50;;;;;;;8.93;5.43;;;5.90;99.90;;;4.22;100.00;101524.13;2569323;30;140748;-38
2021/10/25 04:59:17;;;;;;;9.07;5.05;;;5.90;99.90;;;4.20;100.00;101515.34;2569602;30;140408;-38
2021/10/25 05:01:45;;;;;;;10.73;4.70;;;5.90;99.90;;;4.23;100.00;101520.44;2569458;30;140545;-38
2021/10/25 05:04:14;;;;;;;9.60;5.22;;;5.90;99.90;;;4.31;100.00;101517.81;2568566;30;136837;-38
2021/10/25 05:06:42;;;;;;;9.25;5.43;;;5.90;99.90;;;4.23;100.00;101502.38;2570292;30;138618;-38
2021/10/25 05:09:10;;;;;;;9.43;5.15;;;6.00;99.90;;;4.30;100.00;101510.72;2568998;30;138049;-38
2021/10/25 05:11:39;;;;;;;7.53;4.88;;;6.00;99.90;;;4.30;100.00;101513.44;2570018;30;140294;-38
2021/10/25 05:14:07;;;;;;;10.13;5.40;;;6.00;99.90;;;4.29;100.00;101511.72;2569479;30;137478;-38
2021/10/25 05:16:37;;;;;;;9.40;4.65;;;6.00;99.90;;;4.24;100.00;101512.19;2569916;30;138250;-38
2021/10/25 05:19:07;;;;;;;7.57;4.63;;;6.00;99.90;;;4.18;100.00;101508.22;2568121;30;137422;-38
2021/10/25 05:21:36;;;;;;;7.53;4.40;;;5.90;99.90;;;4.10;100.00;101502.75;2567395;30;138455;-38
2021/10/25 05:24:04;;;;;;;9.60;4.97;;;5.90;99.90;;;4.07;100.00;101499.50;2566413;30;140068;-38
2021/10/25 05:26:33;;;;;;;;;;;5.80;99.90;;;4.05;100.00;101502.38;2567797;30;138159;-38
2021/10/25 05:29:01;;;;;;;7.40;4.68;;;5.80;99.90;;;4.05;100.00;101504.22;2569556;30;138457;-38
2021/10/25 05:31:29;;;;;;;8.52;4.97;;;5.80;99.90;;;4.02;100.00;101510.78;2569387;30;138595;-38
2021/10/25 05:33:58;;;;;;;9.68;5.00;;;5.80;99.90;;;4.01;100.00;101509.09;2569139;30;137683;-38
2021/10/25 05:36:26;;;;;;;9.73;5.43;;;5.80;99.90;;;4.05;100.00;101507.78;2568045;30;140235;-38
2021/10/25 05:38:54;;;;;;;8.55;4.65;;;5.70;99.90;;;4.02;100.00;101511.63;2569898;30;137283;-37
2021/10/25 05:41:24;;;;;;;7.70;4.97;;;5.70;99.90;;;4.06;100.00;101506.78;2568379;30;137345;-38
2021/10/25 05:43:51;;;;;;;8.38;4.60;;;5.80;99.90;;;4.11;100.00;101517.97;2568816;30;137752;-38
2021/10/25 05:46:19;;;;;;;8.20;4.68;;;5.80;99.90;;;4.12;100.00;101514.25;2568151;30;140020;-38
2021/10/25 05:48:47;;;;;;;8.35;5.00;;;5.80;99.90;;;4.11;100.00;101517.09;2569104;30;138078;-38
2021/10/25 05:51:15;;;;;;;8.32;5.07;;;5.80;99.90;;;4.05;100.00;101513.19;2566814;30;138617;-38
2021/10/25 05:53:44;;;;;;;8.93;5.00;;;5.80;99.90;;;4.08;100.00;101512.00;2568279;30;138152;-38
2021/10/25 05:56:14;;;;;;;9.68;5.07;;;5.80;99.90;;;4.08;100.00;101514.69;2568678;30;139760;-38
2021/10/25 05:58:42;;;;;;;7.63;4.72;;;5.80;99.90;;;4.06;100.00;101512.16;2568589;30;137773;-38
2021/10/25 06:01:13;;;;;;;8.73;4.85;;;5.80;99.90;;;4.01;100.00;101514.50;2567522;30;139788;-38
2021/10/25 06:04:05;;;;;;;10.50;5.10;;;5.80;99.90;;;3.96;100.00;101514.06;2568631;30;137612;-38
2021/10/25 06:06:37;;;;;;;8.55;5.05;;;5.70;99.90;;;4.00;100.00;101510.09;2568276;30;140011;-38
2021/10/25 06:09:06;;;;;;;8.20;5.10;;;5.70;99.90;;;3.97;100.00;101511.22;2568122;30;139840;-38
2021/10/25 06:11:35;;;;;;;8.73;5.47;;;5.70;99.90;;;3.99;100.00;101511.91;2569122;30;139621;-38
2021/10/25 06:14:06;;;;;;;9.48;5.13;;;5.70;99.90;;;3.96;100.00;101505.97;2568513;30;138986;-38
2021/10/25 06:16:37;;;;;;;9.57;5.25;;;5.70;99.90;;;4.01;100.00;101511.78;2565731;30;137318;-37
2021/10/25 06:19:08;;;;;;;11.02;6.03;;;5.70;99.90;;;3.96;100.00;101506.84;2569661;30;139155;-37
2021/10/25 06:21:35;;;;;;;9.68;5.47;;;5.70;99.90;;;3.96;100.00;101506.84;2570638;30;138712;-38
2021/10/25 06:24:05;;;;;;;10.70;5.78;;;5.70;99.90;;;3.93;100.00;101501.75;2566549;30;139000;-38
2021/10/25 06:26:42;;;;;;;9.68;5.40;;;5.70;99.90;;;3.99;100.00;101503.00;2568376;30;138910;-38
2021/10/25 06:29:12;;;;;;;9.63;5.55;;;5.70;99.90;;;3.98;100.00;101501.28;2569984;30;138872;-38
2021/10/25 06:31:42;;;;;;;8.27;5.40;;;5.70;99.90;;;3.92;100.00;101505.44;2568088;30;139717;-38
2021/10/25 06:34:44;;;;;;;8.52;5.20;;;5.60;99.90;;;3.88;100.00;101510.28;2570083;30;137815;-38
2021/10/25 06:37:37;;;;;;;10.88;6.15;;;5.60;99.90;;;3.91;100.00;101514.53;2568164;30;137220;-38
2021/10/25 06:40:07;;;;;;;10.68;6.05;;;5.60;99.90;;;3.91;100.00;101505.59;2567918;30;138300;-38
2021/10/25 06:42:37;;;;;;;10.13;5.07;;;5.60;99.90;;;3.94;100.00;101507.97;2569267;30;140680;-38
2021/10/25 06:45:14;;;;;;;9.38;5.60;;;5.70;99.90;;;3.90;100.00;101499.34;2566590;30;139587;-38
2021/10/25 06:47:45;;;;;;;8.70;5.30;;;5.60;99.90;;;3.89;100.00;101506.59;2571556;30;138401;-38
2021/10/25 06:50:16;;;;;;;10.63;5.30;;;5.60;99.90;;;3.96;100.00;101512.22;2569048;30;138786;-38
2021/10/25 06:52:50;;;;;;;10.75;5.45;;;5.70;99.90;;;3.99;100.00;101509.22;2569387;30;140447;-38
2021/10/25 06:55:20;;;;;;;8.38;5.40;;;5.70;99.90;;;4.03;100.00;101504.38;2569211;30;139568;-38
2021/10/25 06:57:53;;;;;;;11.95;5.93;;;5.70;99.90;;;4.08;100.00;101512.00;2567451;30;139188;-38
2021/10/25 07:00:27;;;;;;;10.10;6.13;;;5.70;99.90;;;4.13;100.00;101515.94;2568706;30;138658;-38
2021/10/25 07:02:55;;;;;;;12.63;5.97;;;5.80;99.90;;;4.17;100.00;101521.91;2569526;30;140111;-38
2021/10/25 07:05:35;;;;;;;8.38;5.15;;;5.80;99.90;;;4.24;100.00;101516.72;2567146;30;140398;-38
2021/10/25 07:08:06;;;;;;;11.18;5.47;;;5.90;99.90;;;4.30;100.00;101516.97;2569992;30;137462;-38
2021/10/25 07:10:37;;;;;;;10.20;5.85;;;5.90;99.90;;;4.41;100.00;101524.00;2566310;30;139547;-38
2021/10/25 07:13:17;;;;;;;10.85;6.15;;;6.00;99.90;;;4.50;100.00;101524.06;2567180;30;138436;-38
2021/10/25 07:15:49;;;;;;;11.50;5.50;;;6.10;99.90;;;4.55;100.00;101529.88;2569515;30;139146;-38
2021/10/25 07:26:02;;;;;;;11.93;5.80;;;6.30;99.90;;;4.85;100.00;101519.63;2569234;30;141288;-38
2021/10/25 08:06:43;;;;;;;12.55;6.53;;;7.80;99.90;;;6.46;90.90;101534.38;2569341;30;139203;-38
2021/10/25 08:12:09;;;;;;;10.73;5.90;;;8.00;99.90;;;6.72;90.52;101534.22;2568565;30;139817;-38
2021/10/25 08:14:42;;;;;;;12.38;6.55;;;8.10;99.90;;;6.84;90.07;101539.31;2569534;30;138144;-38
2021/10/25 08:17:16;;;;;;;11.55;5.78;;;8.20;99.90;;;6.93;89.70;101541.00;2569644;30;139438;-38
2021/10/25 08:19:43;;;;;;;11.52;5.60;;;8.30;99.90;;;7.02;89.48;101539.97;2569434;30;139504;-38
2021/10/25 08:22:15;;;;;;;8.65;5.75;;;8.40;99.90;;;7.15;89.09;101536.72;2569572;30;138269;-38
2021/10/25 08:24:52;;;;;;;10.13;6.40;;;8.50;99.90;;;7.26;88.54;101540.09;2568904;30;139816;-38
2021/10/25 08:27:27;;;;;;;10.30;5.97;;;8.60;99.90;;;7.36;87.64;101537.19;2569093;30;139333;-38
2021/10/25 08:29:58;;;;;;;9.77;6.40;;;8.70;99.90;;;7.41;87.22;101540.22;2577062;30;140688;-39
2021/10/25 08:41:00;;;;;;;9.82;5.75;;;9.10;99.90;;;7.86;84.51;101536.00;2566489;30;139814;-40
2021/10/25 08:43:29;;;;;;;10.90;5.57;;;9.20;99.90;;;7.99;84.52;101535.41;2567128;30;138530;-40
2021/10/25 08:45:59;;;;;;;12.35;5.63;;;9.30;99.90;;;8.11;84.62;101538.59;2568648;30;138277;-40
2021/10/25 08:48:27;;;;;;;9.07;5.65;;;9.40;99.90;;;8.21;83.22;101539.19;2567687;30;138517;-40
2021/10/25 08:50:55;;;;;;;14.73;6.20;;;9.50;99.90;;;8.32;83.52;101529.78;2564036;30;140003;-40
2021/10/25 08:53:22;;;;;;;8.50;5.40;;;9.60;99.90;;;8.49;82.56;101530.56;2568198;30;137363;-40
2021/10/25 08:55:56;;;;;;;8.05;5.57;;;9.80;99.90;;;8.72;82.86;101540.56;2566972;30;139652;-40
2021/10/25 08:58:39;;;;;;;10.40;5.47;;;9.90;99.90;;;8.90;81.42;101534.81;2566201;30;138921;-40
2021/10/25 09:01:07;;;;;;;8.73;5.35;;;10.10;99.90;;;8.97;80.76;101532.19;2564129;30;140669;-40
2021/10/25 09:04:12;;;;;;;9.73;5.38;;;10.20;99.90;;;8.96;79.48;101535.94;2566758;30;138845;-40
2021/10/25 09:06:58;;;;;;;9.15;5.07;;;10.30;99.90;;;9.15;79.64;101531.00;2567611;30;137076;-40
2021/10/25 09:09:29;;;;;;;12.43;5.82;;;10.40;99.90;;;9.37;79.59;101531.97;2568549;30;137395;-40
2021/10/25 09:12:04;;;;;;;12.50;5.47;;;10.60;99.90;;;9.61;78.87;101535.44;2567750;30;139693;-40
2021/10/25 09:14:43;;;;;;;10.02;5.60;;;10.80;99.90;;;9.91;79.12;101538.13;2567034;30;138810;-40
2021/10/25 09:17:10;;;;;;;8.48;4.85;;;11.00;99.90;;;10.08;77.78;101534.16;2566336;30;138551;-40
2021/10/25 09:19:47;;;;;;;8.27;5.00;;;11.20;99.90;;;10.19;75.58;101529.22;2568817;30;138511;-40
2021/10/25 09:22:21;;;;;;;8.82;5.15;;;11.40;99.90;;;10.40;74.43;101535.75;2567486;30;139413;-40
2021/10/25 09:24:55;;;;;;;8.18;4.75;;;11.50;99.90;;;10.52;74.70;101527.91;2568584;30;137503;-40
2021/10/25 09:27:45;;;;;;;8.93;4.97;;;11.70;99.90;;;10.72;74.55;101522.63;2566363;30;139454;-40
2021/10/25 09:30:39;;;;;;;7.65;4.68;;;11.80;99.90;;;10.94;74.13;101520.75;2567810;30;137639;-40
2021/10/25 09:33:09;;;;;;;8.45;5.05;;;12.10;99.90;;;11.21;72.14;101526.41;2566445;30;140613;-40
2021/10/25 09:35:48;;;;;;;12.02;5.28;;;12.30;99.90;;;11.43;70.67;101523.59;2567531;30;138019;-40
2021/10/25 09:38:30;;;;;;;6.57;4.25;;;12.50;99.90;;;11.61;71.04;101526.63;2567450;30;138399;-40
2021/10/25 09:50:47;;;;;;;6.95;3.67;;;13.00;99.90;;;11.56;68.22;101522.81;2567080;30;138121;-40
2021/10/25 09:53:36;;;;;;;8.30;4.03;;;12.90;99.90;;;11.54;69.22;101519.44;2565379;30;140197;-40
2021/10/25 09:56:10;;;;;;;8.38;4.22;;;12.80;99.90;;;11.49;69.35;101515.41;2567112;30;139386;-40
2021/10/25 09:59:30;;;;;;;6.43;4.50;;;12.80;99.90;;;11.49;69.13;101522.78;2566102;38;137520;-40
2021/10/25 10:01:59;;;;;;;8.55;4.07;;;12.80;99.90;;;11.52;70.25;101516.91;2567749;30;139597;-40
2021/10/25 10:04:29;;;;;;;8.40;4.22;;;12.80;99.90;;;11.59;69.84;101517.78;2566513;30;138521;-40
2021/10/25 10:07:17;;;;;;;7.47;4.10;;;12.80;99.90;;;11.66;71.37;101515.91;2567197;30;138666;-40
2021/10/25 10:09:50;;;;;;;6.65;4.03;;;12.90;99.90;;;11.76;72.18;101522.91;2566625;30;139801;-40
2021/10/25 10:12:21;;;;;;;9.45;4.20;;;12.90;99.90;;;11.84;71.51;101520.00;2566494;30;139259;-40
2021/10/25 10:14:57;;;;;;;7.35;4.13;;;13.00;99.90;;;11.92;70.48;101519.00;2567432;30;138858;-40
2021/10/25 10:17:43;;;;;;;8.82;4.32;;;13.10;99.90;;;11.92;69.49;101522.53;2566457;30;139358;-40
2021/10/25 10:20:24;;;;;;;8.43;4.05;;;13.10;99.90;;;11.98;69.21;101515.44;2565540;30;139111;-40
2021/10/25 10:23:03;;;;;;;6.75;4.25;;;13.20;99.90;;;12.04;69.48;101519.28;2563889;30;138799;-40
2021/10/25 10:26:00;;;;;;;9.25;4.43;;;13.20;99.90;;;11.99;68.72;101513.53;2567878;30;138325;-40
2021/10/25 10:28:49;;;;;;;8.70;4.07;;;13.20;99.90;;;11.98;69.09;101509.13;2566854;30;139244;-40
2021/10/25 10:31:24;;;;;;;8.13;4.25;;;13.20;99.90;;;11.99;67.70;101506.16;2567453;30;139277;-40
2021/10/25 10:34:17;;;;;;;6.88;4.00;;;13.20;99.90;;;11.99;68.30;101499.88;2568530;30;136861;-40
2021/10/25 10:36:56;;;;;;;7.65;4.70;;;13.20;99.90;;;12.02;69.01;101499.50;2565406;30;137728;-40
2021/10/25 10:39:39;;;;;;;9.02;3.97;;;13.30;99.90;;;12.07;68.50;101489.63;2568169;30;138578;-40
2021/10/25 10:42:34;;;;;;;7.03;4.13;;;13.30;99.90;;;12.17;69.81;101500.16;2567743;30;136925;-40
2021/10/25 10:45:11;;;;;;;8.40;4.37;;;13.40;99.90;;;12.16;68.96;101495.72;2566562;30;139329;-40
2021/10/25 10:47:59;;;;;;;7.47;4.03;;;13.40;99.90;;;12.23;67.85;101496.59;2566588;30;138945;-40
2021/10/25 10:53:12;;;;;;;7.45;3.42;;;13.50;99.90;;;12.48;68.12;101496.03;2567266;30;137321;-40
2021/10/25 10:55:44;;;;;;;7.28;3.70;;;13.60;99.90;;;12.55;68.45;101496.00;2569379;30;137306;-40
2021/10/25 10:58:23;;;;;;;7.28;4.05;;;13.70;99.90;;;12.74;68.45;101494.34;2568663;30;138127;-40
2021/10/25 11:01:04;;;;;;;6.55;3.65;;;13.80;99.90;;;12.87;66.91;101495.38;2567022;30;138896;-40
2021/10/25 11:03:36;;;;;;;6.88;3.38;;;14.00;99.90;;;12.93;67.60;101484.44;2567948;30;137512;-40
2021/10/25 11:06:11;;;;;;;8.02;3.33;;;14.00;99.90;;;13.01;68.70;101469.69;2567200;30;138726;-40
2021/10/25 11:08:48;;;;;;;5.18;3.05;;;14.10;99.90;;;13.08;66.29;101475.13;2568722;30;136856;-40
2021/10/25 11:11:22;;;;;;;5.55;3.40;;;14.20;99.90;;;13.22;67.32;101475.94;2568845;30;139152;-40
2021/10/25 11:14:06;;;;;;;5.05;3.17;;;14.30;99.90;;;13.33;65.56;101475.28;2567610;30;137499;-40
2021/10/25 11:19:11;;;;;;;6.35;3.38;;;14.40;99.90;;;13.47;65.34;101483.50;2569328;30;137675;-40
2021/10/25 11:21:51;;;;;;;5.38;3.00;;;14.50;99.90;;;13.63;66.08;101480.28;2567893;30;138368;-40
2021/10/25 11:24:22;;;;;;;9.13;3.90;;;14.60;99.90;;;13.86;63.24;101481.66;2567307;30;137365;-40
2021/10/25 11:26:56;;;;;;;9.20;3.25;;;14.80;99.90;;;13.94;63.79;101483.31;2568994;30;140051;-40
2021/10/25 11:29:33;;;;;;;5.63;2.97;;;14.90;99.90;;;13.97;63.32;101476.53;2568555;30;137769;-40
2021/10/25 11:32:06;;;;;;;6.18;3.10;;;15.00;99.90;;;13.90;63.86;101474.69;2569115;30;138240;-40
2021/10/25 11:34:40;;;;;;;7.43;3.30;;;15.00;99.90;;;13.83;63.43;101464.78;2567102;30;137777;-41
2021/10/25 11:37:13;;;;;;;6.47;3.45;;;14.90;99.90;;;13.85;64.88;101470.91;2568681;30;138627;-40
2021/10/25 11:39:55;;;;;;;6.32;2.83;;;15.00;99.90;;;13.81;66.22;101465.84;2568559;30;136907;-40
2021/10/25 11:42:23;;;;;;;7.78;3.25;;;15.00;99.90;;;13.78;66.11;101468.19;2569172;30;136924;-40
2021/10/25 11:44:55;;;;;;;6.93;3.75;;;14.90;99.90;;;13.80;65.34;101461.44;2567280;30;137407;-40
2021/10/25 11:47:36;;;;;;;7.47;3.25;;;15.00;99.90;;;13.86;66.75;101454.25;2568960;30;138405;-40
2021/10/25 11:50:17;;;;;;;6.53;3.17;;;14.90;99.90;;;13.90;66.62;101450.00;2567994;30;138086;-40
2021/10/25 11:52:59;;;;;;;8.35;3.58;;;15.00;99.90;;;13.81;65.22;101435.69;2567890;30;138003;-40
2021/10/25 11:55:33;;;;;;;6.72;3.92;;;15.00;99.90;;;13.80;66.25;101441.41;2566611;30;138383;-40
2021/10/25 11:58:04;;;;;;;5.90;3.15;;;15.00;99.90;;;13.76;65.91;101435.50;2568001;30;137560;-40
2021/10/25 12:00:39;;;;;;;5.65;3.22;;;15.00;99.90;;;13.76;66.00;101440.13;2566900;30;137614;-40
2021/10/25 12:03:24;;;;;;;5.28;2.95;;;14.90;99.90;;;13.76;66.15;101437.41;2564813;30;139392;-40
2021/10/25 12:05:55;;;;;;;6.65;2.90;;;14.90;99.90;;;13.88;68.13;101441.13;2567973;30;137437;-40
2021/10/25 12:08:23;;;;;;;6.30;3.40;;;15.00;99.90;;;13.96;66.03;101448.28;2568564;30;137815;-40
2021/10/25 12:10:52;;;;;;;5.57;2.97;;;15.10;99.90;;;13.97;67.01;101438.13;2568402;30;137299;-40
2021/10/25 12:13:20;;;;;;;6.10;3.03;;;15.10;99.90;;;14.13;66.25;101443.09;2567682;30;137525;-40
2021/10/25 12:15:54;;;;;;;5.72;2.72;;;15.20;99.90;;;14.23;65.74;101426.97;2568368;30;137017;-40
2021/10/25 12:18:26;;;;;;;6.88;2.78;;;15.30;99.90;;;14.31;66.29;101422.28;2567689;30;137140;-40